sensor_id;sensor_type;location;lat;lon;timestamp;pressure;altitude;pressure_sealevel;temperature;humidity
56052;BME280;41919;42.648;23.384;2023-04-22T00:01:41;94203.72;;;8.36;78.56
56052;BME280;41919;42.648;23.384;2023-04-22T00:04:07;94208.13;;;8.29;78.58
56052;BME280;41919;42.648;23.384;2023-04-22T00:06:33;94094.91;;;7.58;78.83
56052;BME280;41919;42.648;23.384;2023-04-22T00:08:58;94254.47;;;8.47;79.46
56052;BME280;41919;42.648;23.384;2023-04-22T00:11:24;94224.75;;;8.28;79.35
56052;BME280;41919;42.648;23.384;2023-04-22T00:13:50;94242.03;;;8.42;79.46
56052;BME280;41919;42.648;23.384;2023-04-22T00:16:15;94262.69;;;8.57;79.18
56052;BME280;41919;42.648;23.384;2023-04-22T00:18:41;94274.31;;;8.48;79.85
56052;BME280;41919;42.648;23.384;2023-04-22T00:21:07;94210.06;;;8.00;80.17
56052;BME280;41919;42.648;23.384;2023-04-22T00:23:32;94261.41;;;8.33;80.71
56052;BME280;41919;42.648;23.384;2023-04-22T00:25:59;94201.75;;;7.76;81.29
56052;BME280;41919;42.648;23.384;2023-04-22T00:28:24;94039.34;;;6.62;82.69
56052;BME280;41919;42.648;23.384;2023-04-22T00:30:50;94190.03;;;7.45;83.92
56052;BME280;41919;42.648;23.384;2023-04-22T00:33:15;94191.00;;;7.38;84.43
56052;BME280;41919;42.648;23.384;2023-04-22T00:35:41;94233.53;;;7.65;84.59
56052;BME280;41919;42.648;23.384;2023-04-22T00:38:06;94183.19;;;7.31;84.90
56052;BME280;41919;42.648;23.384;2023-04-22T00:40:31;94265.81;;;7.77;85.12
56052;BME280;41919;42.648;23.384;2023-04-22T00:42:58;94268.38;;;7.71;85.50
56052;BME280;41919;42.648;23.384;2023-04-22T00:45:25;94216.38;;;7.36;85.21
56052;BME280;41919;42.648;23.384;2023-04-22T00:47:51;94275.16;;;7.65;85.76
56052;BME280;41919;42.648;23.384;2023-04-22T00:50:16;94258.75;;;7.64;85.46
56052;BME280;41919;42.648;23.384;2023-04-22T00:52:43;94209.81;;;7.40;84.68
56052;BME280;41919;42.648;23.384;2023-04-22T00:55:08;94242.00;;;7.80;83.46
56052;BME280;41919;42.648;23.384;2023-04-22T00:57:34;94273.75;;;8.11;82.45
56052;BME280;41919;42.648;23.384;2023-04-22T01:00:00;94275.00;;;8.21;81.01
56052;BME280;41919;42.648;23.384;2023-04-22T01:02:25;94234.66;;;7.97;80.77
56052;BME280;41919;42.648;23.384;2023-04-22T01:04:52;94237.50;;;8.02;80.58
56052;BME280;41919;42.648;23.384;2023-04-22T01:07:20;94232.94;;;8.11;79.34
56052;BME280;41919;42.648;23.384;2023-04-22T01:09:46;94215.44;;;7.92;78.98
56052;BME280;41919;42.648;23.384;2023-04-22T01:12:11;94235.72;;;8.10;78.86
56052;BME280;41919;42.648;23.384;2023-04-22T01:14:37;94266.22;;;8.29;78.68
56052;BME280;41919;42.648;23.384;2023-04-22T01:17:03;94216.41;;;7.77;79.23
56052;BME280;41919;42.648;23.384;2023-04-22T01:19:28;94236.47;;;7.97;79.11
56052;BME280;41919;42.648;23.384;2023-04-22T01:21:54;94270.63;;;8.29;78.59
56052;BME280;41919;42.648;23.384;2023-04-22T01:24:20;94285.69;;;8.40;78.64
56052;BME280;41919;42.648;23.384;2023-04-22T01:26:47;94286.66;;;8.39;78.55
56052;BME280;41919;42.648;23.384;2023-04-22T01:29:14;94281.84;;;8.36;78.96
56052;BME280;41919;42.648;23.384;2023-04-22T01:31:39;94223.50;;;8.10;78.36
56052;BME280;41919;42.648;23.384;2023-04-22T01:34:05;94247.97;;;8.36;77.80
56052;BME280;41919;42.648;23.384;2023-04-22T01:36:31;94278.72;;;8.60;77.65
56052;BME280;41919;42.648;23.384;2023-04-22T01:38:58;94204.72;;;8.28;76.96
56052;BME280;41919;42.648;23.384;2023-04-22T01:41:24;94276.34;;;8.79;76.48
56052;BME280;41919;42.648;23.384;2023-04-22T01:43:52;94224.19;;;8.46;76.58
56052;BME280;41919;42.648;23.384;2023-04-22T01:46:17;94224.16;;;8.32;76.38
56052;BME280;41919;42.648;23.384;2023-04-22T01:48:43;94224.44;;;7.89;79.09
56052;BME280;41919;42.648;23.384;2023-04-22T01:51:15;94253.44;;;7.86;80.20
56052;BME280;41919;42.648;23.384;2023-04-22T01:53:41;94230.66;;;7.88;80.21
56052;BME280;41919;42.648;23.384;2023-04-22T01:56:07;94211.25;;;7.91;79.62
56052;BME280;41919;42.648;23.384;2023-04-22T01:58:32;94278.22;;;8.30;78.85
56052;BME280;41919;42.648;23.384;2023-04-22T02:00:58;94192.31;;;7.62;79.22
56052;BME280;41919;42.648;23.384;2023-04-22T02:03:23;94277.41;;;7.75;82.18
56052;BME280;41919;42.648;23.384;2023-04-22T02:05:49;94202.69;;;7.14;84.28
56052;BME280;41919;42.648;23.384;2023-04-22T02:08:14;94277.81;;;7.37;86.62
56052;BME280;41919;42.648;23.384;2023-04-22T02:10:39;94212.31;;;6.92;88.37
56052;BME280;41919;42.648;23.384;2023-04-22T02:13:05;94227.06;;;7.13;88.05
56052;BME280;41919;42.648;23.384;2023-04-22T02:15:30;94219.16;;;7.28;86.95
56052;BME280;41919;42.648;23.384;2023-04-22T02:17:56;94219.78;;;7.36;86.51
56052;BME280;41919;42.648;23.384;2023-04-22T02:20:21;94261.41;;;7.78;85.73
56052;BME280;41919;42.648;23.384;2023-04-22T02:22:47;94209.00;;;7.39;85.32
56052;BME280;41919;42.648;23.384;2023-04-22T02:25:12;94271.41;;;7.74;84.40
56052;BME280;41919;42.648;23.384;2023-04-22T02:27:38;94207.72;;;7.22;83.43
56052;BME280;41919;42.648;23.384;2023-04-22T02:30:05;94227.44;;;7.10;85.53
56052;BME280;41919;42.648;23.384;2023-04-22T02:32:31;94295.50;;;7.26;87.96
56052;BME280;41919;42.648;23.384;2023-04-22T02:34:56;94278.84;;;7.14;90.23
56052;BME280;41919;42.648;23.384;2023-04-22T02:37:22;94285.22;;;7.12;91.27
56052;BME280;41919;42.648;23.384;2023-04-22T02:39:48;94288.94;;;7.02;92.22
56052;BME280;41919;42.648;23.384;2023-04-22T02:42:14;94284.38;;;7.04;92.24
56052;BME280;41919;42.648;23.384;2023-04-22T02:44:39;94263.63;;;7.11;91.67
56052;BME280;41919;42.648;23.384;2023-04-22T02:47:05;94289.28;;;7.21;91.96
56052;BME280;41919;42.648;23.384;2023-04-22T02:49:31;94220.88;;;6.85;91.64
56052;BME280;41919;42.648;23.384;2023-04-22T02:51:56;94278.13;;;7.27;91.10
56052;BME280;41919;42.648;23.384;2023-04-22T02:54:22;94230.88;;;7.17;90.10
56052;BME280;41919;42.648;23.384;2023-04-22T02:56:47;94189.63;;;7.07;88.63
56052;BME280;41919;42.648;23.384;2023-04-22T02:59:13;94264.97;;;7.70;87.19
56052;BME280;41919;42.648;23.384;2023-04-22T03:01:38;94239.56;;;7.72;85.57
56052;BME280;41919;42.648;23.384;2023-04-22T03:04:03;94298.81;;;8.18;84.42
56052;BME280;41919;42.648;23.384;2023-04-22T03:06:29;94241.69;;;7.97;83.90
56052;BME280;41919;42.648;23.384;2023-04-22T03:08:55;94297.25;;;8.37;83.72
56052;BME280;41919;42.648;23.384;2023-04-22T03:11:20;94231.09;;;8.05;82.65
56052;BME280;41919;42.648;23.384;2023-04-22T03:13:46;94240.97;;;8.23;81.74
56052;BME280;41919;42.648;23.384;2023-04-22T03:16:11;94225.72;;;8.13;81.34
56052;BME280;41919;42.648;23.384;2023-04-22T03:18:37;94304.59;;;8.69;80.47
56052;BME280;41919;42.648;23.384;2023-04-22T03:21:03;94295.75;;;8.56;79.39
56052;BME280;41919;42.648;23.384;2023-04-22T03:23:28;94295.72;;;7.95;79.89
56052;BME280;41919;42.648;23.384;2023-04-22T03:25:54;94297.13;;;7.56;83.59
56052;BME280;41919;42.648;23.384;2023-04-22T03:28:19;94306.16;;;7.32;86.33
56052;BME280;41919;42.648;23.384;2023-04-22T03:30:44;94294.75;;;7.04;87.92
56052;BME280;41919;42.648;23.384;2023-04-22T03:33:10;94228.28;;;6.39;90.02
56052;BME280;41919;42.648;23.384;2023-04-22T03:35:36;94300.72;;;6.77;91.08
56052;BME280;41919;42.648;23.384;2023-04-22T03:38:01;94312.34;;;7.02;90.06
56052;BME280;41919;42.648;23.384;2023-04-22T03:40:26;94249.69;;;6.69;89.84
56052;BME280;41919;42.648;23.384;2023-04-22T03:42:52;94169.63;;;6.01;89.94
56052;BME280;41919;42.648;23.384;2023-04-22T03:45:17;94245.03;;;6.58;90.48
56052;BME280;41919;42.648;23.384;2023-04-22T03:47:43;94229.81;;;6.33;91.10
56052;BME280;41919;42.648;23.384;2023-04-22T03:50:08;94312.16;;;6.82;92.25
56052;BME280;41919;42.648;23.384;2023-04-22T03:52:34;94311.47;;;6.95;91.85
56052;BME280;41919;42.648;23.384;2023-04-22T03:54:59;94285.84;;;6.92;91.12
56052;BME280;41919;42.648;23.384;2023-04-22T03:57:25;94250.25;;;6.86;90.71
56052;BME280;41919;42.648;23.384;2023-04-22T03:59:50;94286.81;;;7.13;88.88
56052;BME280;41919;42.648;23.384;2023-04-22T04:02:15;94252.25;;;7.12;87.78
56052;BME280;41919;42.648;23.384;2023-04-22T04:04:41;94258.75;;;7.30;86.27
56052;BME280;41919;42.648;23.384;2023-04-22T04:07:07;94315.94;;;7.99;84.98
56052;BME280;41919;42.648;23.384;2023-04-22T04:09:32;94281.19;;;7.72;83.46
56052;BME280;41919;42.648;23.384;2023-04-22T04:11:58;94321.97;;;8.00;82.18
56052;BME280;41919;42.648;23.384;2023-04-22T04:14:23;94307.81;;;8.16;81.20
56052;BME280;41919;42.648;23.384;2023-04-22T04:16:48;94258.44;;;7.88;80.19
56052;BME280;41919;42.648;23.384;2023-04-22T04:19:14;94197.03;;;7.45;79.52
56052;BME280;41919;42.648;23.384;2023-04-22T04:21:39;94328.66;;;8.22;80.30
56052;BME280;41919;42.648;23.384;2023-04-22T04:24:06;94275.03;;;7.80;79.83
56052;BME280;41919;42.648;23.384;2023-04-22T04:26:32;94340.31;;;8.27;80.33
56052;BME280;41919;42.648;23.384;2023-04-22T04:28:58;94338.75;;;8.39;79.32
56052;BME280;41919;42.648;23.384;2023-04-22T04:31:26;94337.28;;;8.91;78.29
56052;BME280;41919;42.648;23.384;2023-04-22T04:33:52;94336.72;;;9.56;74.97
56052;BME280;41919;42.648;23.384;2023-04-22T04:36:17;94295.91;;;9.88;72.17
56052;BME280;41919;42.648;23.384;2023-04-22T04:38:44;94350.81;;;10.27;69.85
56052;BME280;41919;42.648;23.384;2023-04-22T04:41:09;94343.53;;;10.42;68.10
56052;BME280;41919;42.648;23.384;2023-04-22T04:43:35;94343.44;;;10.04;69.92
56052;BME280;41919;42.648;23.384;2023-04-22T04:46:00;94306.78;;;9.65;69.94
56052;BME280;41919;42.648;23.384;2023-04-22T04:48:26;94340.03;;;10.03;69.97
56052;BME280;41919;42.648;23.384;2023-04-22T04:50:52;94370.13;;;10.19;69.63
56052;BME280;41919;42.648;23.384;2023-04-22T04:53:21;94357.53;;;10.54;68.06
56052;BME280;41919;42.648;23.384;2023-04-22T04:55:47;94304.50;;;10.54;66.83
56052;BME280;41919;42.648;23.384;2023-04-22T04:58:13;94370.59;;;11.56;65.56
56052;BME280;41919;42.648;23.384;2023-04-22T05:00:38;94309.03;;;11.29;63.58
56052;BME280;41919;42.648;23.384;2023-04-22T05:03:03;94380.44;;;11.29;66.29
56052;BME280;41919;42.648;23.384;2023-04-22T05:05:29;94323.75;;;11.23;66.47
56052;BME280;41919;42.648;23.384;2023-04-22T05:07:54;94326.81;;;10.88;67.78
56052;BME280;41919;42.648;23.384;2023-04-22T05:10:20;94315.47;;;10.69;69.19
56052;BME280;41919;42.648;23.384;2023-04-22T05:12:45;94319.78;;;10.57;69.12
56052;BME280;41919;42.648;23.384;2023-04-22T05:15:12;94385.03;;;11.09;70.14
56052;BME280;41919;42.648;23.384;2023-04-22T05:17:38;94327.09;;;10.35;70.57
56052;BME280;41919;42.648;23.384;2023-04-22T05:20:04;94340.09;;;10.55;70.29
56052;BME280;41919;42.648;23.384;2023-04-22T05:22:30;94370.09;;;10.84;70.26
56052;BME280;41919;42.648;23.384;2023-04-22T05:24:55;94379.50;;;10.92;70.92
56052;BME280;41919;42.648;23.384;2023-04-22T05:27:21;94320.94;;;10.61;70.00
56052;BME280;41919;42.648;23.384;2023-04-22T05:29:46;94316.28;;;11.02;70.50
56052;BME280;41919;42.648;23.384;2023-04-22T05:32:12;94395.34;;;11.61;67.17
56052;BME280;41919;42.648;23.384;2023-04-22T05:34:37;94361.25;;;11.67;66.88
56052;BME280;41919;42.648;23.384;2023-04-22T05:37:03;94382.00;;;12.31;65.08
56052;BME280;41919;42.648;23.384;2023-04-22T05:39:29;94390.97;;;12.90;63.86
56052;BME280;41919;42.648;23.384;2023-04-22T05:41:54;94331.44;;;12.79;62.91
56052;BME280;41919;42.648;23.384;2023-04-22T05:44:20;94388.28;;;13.27;61.29
56052;BME280;41919;42.648;23.384;2023-04-22T05:46:46;94379.09;;;13.37;61.18
56052;BME280;41919;42.648;23.384;2023-04-22T05:49:11;94379.25;;;13.65;60.06
56052;BME280;41919;42.648;23.384;2023-04-22T05:51:36;94378.78;;;13.80;60.75
56052;BME280;41919;42.648;23.384;2023-04-22T05:54:02;94355.28;;;13.73;59.98
56052;BME280;41919;42.648;23.384;2023-04-22T05:56:28;94322.16;;;13.49;60.24
56052;BME280;41919;42.648;23.384;2023-04-22T05:58:53;94330.69;;;14.03;58.38
56052;BME280;41919;42.648;23.384;2023-04-22T06:01:18;94382.63;;;15.01;56.93
56052;BME280;41919;42.648;23.384;2023-04-22T06:03:44;94379.50;;;15.78;53.89
56052;BME280;41919;42.648;23.384;2023-04-22T06:06:09;94386.56;;;16.73;50.96
56052;BME280;41919;42.648;23.384;2023-04-22T06:08:35;94333.16;;;17.42;48.08
56052;BME280;41919;42.648;23.384;2023-04-22T06:11:00;94361.88;;;18.35;45.07
56052;BME280;41919;42.648;23.384;2023-04-22T06:13:26;94362.13;;;19.02;43.51
56052;BME280;41919;42.648;23.384;2023-04-22T06:15:52;94324.34;;;19.53;40.99
56052;BME280;41919;42.648;23.384;2023-04-22T06:18:17;94324.31;;;19.32;42.79
56052;BME280;41919;42.648;23.384;2023-04-22T06:20:42;94351.13;;;19.87;44.87
56052;BME280;41919;42.648;23.384;2023-04-22T06:23:08;94327.00;;;20.80;39.99
56052;BME280;41919;42.648;23.384;2023-04-22T06:25:33;94364.75;;;21.71;36.97
56052;BME280;41919;42.648;23.384;2023-04-22T06:27:59;94323.50;;;22.32;35.88
56052;BME280;41919;42.648;23.384;2023-04-22T06:30:25;94369.63;;;23.57;36.01
56052;BME280;41919;42.648;23.384;2023-04-22T06:32:51;94361.00;;;24.31;33.40
56052;BME280;41919;42.648;23.384;2023-04-22T06:35:17;94372.22;;;24.88;31.54
56052;BME280;41919;42.648;23.384;2023-04-22T06:37:43;94374.84;;;25.16;31.08
56052;BME280;41919;42.648;23.384;2023-04-22T06:40:09;94355.09;;;25.76;29.43
56052;BME280;41919;42.648;23.384;2023-04-22T06:42:35;94362.22;;;26.26;29.03
56052;BME280;41919;42.648;23.384;2023-04-22T06:45:00;94312.28;;;26.70;27.98
56052;BME280;41919;42.648;23.384;2023-04-22T06:47:26;94372.91;;;27.06;27.52
56052;BME280;41919;42.648;23.384;2023-04-22T06:49:52;94350.44;;;27.33;27.39
56052;BME280;41919;42.648;23.384;2023-04-22T06:52:17;94258.91;;;27.43;26.46
56052;BME280;41919;42.648;23.384;2023-04-22T06:54:42;94327.16;;;28.71;25.73
56052;BME280;41919;42.648;23.384;2023-04-22T06:57:08;94374.72;;;29.60;24.43
56052;BME280;41919;42.648;23.384;2023-04-22T06:59:33;94361.84;;;29.45;24.33
56052;BME280;41919;42.648;23.384;2023-04-22T07:01:59;94252.91;;;28.58;24.44
56052;BME280;41919;42.648;23.384;2023-04-22T07:04:24;94365.53;;;29.40;24.12
56052;BME280;41919;42.648;23.384;2023-04-22T07:06:51;94367.56;;;29.43;23.59
56052;BME280;41919;42.648;23.384;2023-04-22T07:09:17;94364.25;;;29.17;23.75
56052;BME280;41919;42.648;23.384;2023-04-22T07:11:43;94370.47;;;29.59;23.83
56052;BME280;41919;42.648;23.384;2023-04-22T07:14:08;94320.97;;;29.01;23.42
56052;BME280;41919;42.648;23.384;2023-04-22T07:16:34;94360.41;;;28.02;25.15
56052;BME280;41919;42.648;23.384;2023-04-22T07:18:59;94377.56;;;28.19;25.63
56052;BME280;41919;42.648;23.384;2023-04-22T07:21:25;94366.03;;;28.74;24.65
56052;BME280;41919;42.648;23.384;2023-04-22T07:23:50;94243.31;;;28.01;24.39
56052;BME280;41919;42.648;23.384;2023-04-22T07:26:16;94362.38;;;29.17;24.22
56052;BME280;41919;42.648;23.384;2023-04-22T07:28:41;94355.22;;;28.44;24.29
56052;BME280;41919;42.648;23.384;2023-04-22T07:31:06;94338.41;;;28.09;24.79
56052;BME280;41919;42.648;23.384;2023-04-22T07:33:32;94326.38;;;28.71;23.35
56052;BME280;41919;42.648;23.384;2023-04-22T07:35:57;94371.56;;;28.78;24.15
56052;BME280;41919;42.648;23.384;2023-04-22T07:38:23;94371.78;;;28.93;23.97
56052;BME280;41919;42.648;23.384;2023-04-22T07:40:49;94374.75;;;28.06;25.05
56052;BME280;41919;42.648;23.384;2023-04-22T07:43:14;94292.19;;;27.60;25.07
56052;BME280;41919;42.648;23.384;2023-04-22T07:45:39;94356.44;;;28.00;25.11
56052;BME280;41919;42.648;23.384;2023-04-22T07:48:05;94369.72;;;27.70;24.54
56052;BME280;41919;42.648;23.384;2023-04-22T07:50:30;94375.69;;;27.32;25.27
56052;BME280;41919;42.648;23.384;2023-04-22T07:52:56;94364.50;;;27.56;24.91
56052;BME280;41919;42.648;23.384;2023-04-22T07:55:21;94326.13;;;27.64;24.69
56052;BME280;41919;42.648;23.384;2023-04-22T07:57:47;94329.13;;;27.71;24.61
56052;BME280;41919;42.648;23.384;2023-04-22T08:00:13;94321.88;;;27.46;24.56
56052;BME280;41919;42.648;23.384;2023-04-22T08:02:38;94363.03;;;27.24;25.19
56052;BME280;41919;42.648;23.384;2023-04-22T08:05:04;94366.69;;;27.36;25.52
56052;BME280;41919;42.648;23.384;2023-04-22T08:07:30;94365.47;;;26.94;25.53
56052;BME280;41919;42.648;23.384;2023-04-22T08:09:55;94324.63;;;26.08;26.06
56052;BME280;41919;42.648;23.384;2023-04-22T08:12:21;94375.09;;;26.55;26.10
56052;BME280;41919;42.648;23.384;2023-04-22T08:14:47;94339.00;;;26.52;26.39
56052;BME280;41919;42.648;23.384;2023-04-22T08:17:12;94327.72;;;26.73;25.74
56052;BME280;41919;42.648;23.384;2023-04-22T08:19:38;94304.78;;;26.49;26.11
56052;BME280;41919;42.648;23.384;2023-04-22T08:22:03;94311.81;;;26.68;25.39
56052;BME280;41919;42.648;23.384;2023-04-22T08:24:28;94356.28;;;26.46;26.38
56052;BME280;41919;42.648;23.384;2023-04-22T08:26:54;94357.72;;;25.90;26.79
56052;BME280;41919;42.648;23.384;2023-04-22T08:29:19;94355.31;;;25.66;27.03
56052;BME280;41919;42.648;23.384;2023-04-22T08:31:45;94304.88;;;25.00;27.81
56052;BME280;41919;42.648;23.384;2023-04-22T08:34:10;94344.19;;;24.99;27.40
56052;BME280;41919;42.648;23.384;2023-04-22T08:36:36;94331.34;;;24.60;28.79
56052;BME280;41919;42.648;23.384;2023-04-22T08:39:01;94349.16;;;24.92;29.03
56052;BME280;41919;42.648;23.384;2023-04-22T08:41:26;94323.84;;;24.76;28.59
56052;BME280;41919;42.648;23.384;2023-04-22T08:43:52;94334.59;;;24.84;28.93
56052;BME280;41919;42.648;23.384;2023-04-22T08:46:18;94336.28;;;24.94;28.07
56052;BME280;41919;42.648;23.384;2023-04-22T08:48:48;94334.91;;;24.69;28.60
56052;BME280;41919;42.648;23.384;2023-04-22T08:51:15;94297.50;;;24.41;29.14
56052;BME280;41919;42.648;23.384;2023-04-22T08:53:42;94309.19;;;24.45;28.86
56052;BME280;41919;42.648;23.384;2023-04-22T08:56:08;94264.28;;;22.64;31.48
56052;BME280;41919;42.648;23.384;2023-04-22T08:58:35;94283.00;;;22.35;31.79
56052;BME280;41919;42.648;23.384;2023-04-22T09:01:01;94278.00;;;21.41;32.68
56052;BME280;41919;42.648;23.384;2023-04-22T09:03:27;94326.00;;;21.60;33.44
56052;BME280;41919;42.648;23.384;2023-04-22T09:05:54;94304.88;;;22.03;33.82
56052;BME280;41919;42.648;23.384;2023-04-22T09:08:20;94321.22;;;21.62;33.48
56052;BME280;41919;42.648;23.384;2023-04-22T09:10:46;94307.88;;;20.83;34.47
56052;BME280;41919;42.648;23.384;2023-04-22T09:13:12;94256.72;;;19.91;36.03
56052;BME280;41919;42.648;23.384;2023-04-22T09:15:37;94316.03;;;20.31;35.34
56052;BME280;41919;42.648;23.384;2023-04-22T09:18:03;94316.63;;;20.88;36.20
56052;BME280;41919;42.648;23.384;2023-04-22T09:20:29;94308.34;;;20.95;35.52
56052;BME280;41919;42.648;23.384;2023-04-22T09:22:57;94154.06;;;20.86;32.97
56052;BME280;41919;42.648;23.384;2023-04-22T09:25:26;94264.59;;;21.85;31.96
56052;BME280;41919;42.648;23.384;2023-04-22T09:27:57;94281.13;;;22.11;30.70
56052;BME280;41919;42.648;23.384;2023-04-22T09:30:33;94288.22;;;21.63;32.37
56052;BME280;41919;42.648;23.384;2023-04-22T09:33:02;94299.50;;;21.49;31.80
56052;BME280;41919;42.648;23.384;2023-04-22T09:35:32;94298.84;;;21.63;31.16
56052;BME280;41919;42.648;23.384;2023-04-22T09:38:00;94276.28;;;21.89;31.17
56052;BME280;41919;42.648;23.384;2023-04-22T09:40:26;94298.41;;;22.09;30.66
56052;BME280;41919;42.648;23.384;2023-04-22T09:42:57;94250.59;;;22.04;29.53
56052;BME280;41919;42.648;23.384;2023-04-22T09:45:34;94257.31;;;22.25;29.13
56052;BME280;41919;42.648;23.384;2023-04-22T09:48:25;94293.47;;;22.75;29.34
56052;BME280;41919;42.648;23.384;2023-04-22T09:50:51;94279.53;;;22.78;29.18
56052;BME280;41919;42.648;23.384;2023-04-22T09:53:18;94298.66;;;22.42;28.81
56052;BME280;41919;42.648;23.384;2023-04-22T09:55:47;94295.84;;;22.04;33.03
56052;BME280;41919;42.648;23.384;2023-04-22T09:58:18;94238.34;;;21.79;32.83
56052;BME280;41919;42.648;23.384;2023-04-22T10:00:50;94295.56;;;22.05;33.53
56052;BME280;41919;42.648;23.384;2023-04-22T10:03:15;94264.72;;;21.01;32.74
56052;BME280;41919;42.648;23.384;2023-04-22T10:05:41;94281.38;;;19.97;35.19
56052;BME280;41919;42.648;23.384;2023-04-22T10:08:10;94287.78;;;19.45;35.52
56052;BME280;41919;42.648;23.384;2023-04-22T10:10:36;94255.97;;;19.19;36.40
56052;BME280;41919;42.648;23.384;2023-04-22T10:13:03;94253.31;;;19.34;35.31
56052;BME280;41919;42.648;23.384;2023-04-22T10:15:34;94296.50;;;19.76;33.53
56052;BME280;41919;42.648;23.384;2023-04-22T10:18:01;94312.94;;;19.73;34.12
56052;BME280;41919;42.648;23.384;2023-04-22T10:20:28;94251.72;;;19.44;34.06
56052;BME280;41919;42.648;23.384;2023-04-22T10:22:55;94261.00;;;19.26;32.57
56052;BME280;41919;42.648;23.384;2023-04-22T10:25:22;94307.88;;;19.20;32.41
56052;BME280;41919;42.648;23.384;2023-04-22T10:30:29;94252.81;;;18.18;31.57
56052;BME280;41919;42.648;23.384;2023-04-22T10:32:55;94224.72;;;18.12;32.57
56052;BME280;41919;42.648;23.384;2023-04-22T10:35:27;94256.47;;;18.07;33.62
56052;BME280;41919;42.648;23.384;2023-04-22T10:37:56;94218.75;;;17.79;34.04
56052;BME280;41919;42.648;23.384;2023-04-22T10:40:21;94141.13;;;17.00;36.78
56052;BME280;41919;42.648;23.384;2023-04-22T10:42:57;94264.16;;;17.33;36.40
56052;BME280;41919;42.648;23.384;2023-04-22T10:45:31;94271.75;;;17.24;37.26
56052;BME280;41919;42.648;23.384;2023-04-22T10:48:01;94289.94;;;17.58;36.60
56052;BME280;41919;42.648;23.384;2023-04-22T10:50:30;94274.59;;;17.50;34.08
56052;BME280;41919;42.648;23.384;2023-04-22T10:52:58;94278.41;;;17.64;34.19
56052;BME280;41919;42.648;23.384;2023-04-22T10:55:25;94274.97;;;17.69;34.08
56052;BME280;41919;42.648;23.384;2023-04-22T10:58:21;94282.91;;;18.07;35.26
56052;BME280;41919;42.648;23.384;2023-04-22T11:00:51;94286.63;;;18.16;33.72
56052;BME280;41919;42.648;23.384;2023-04-22T11:03:26;94281.53;;;17.99;33.14
56052;BME280;41919;42.648;23.384;2023-04-22T11:06:18;94176.16;;;17.28;32.44
56052;BME280;41919;42.648;23.384;2023-04-22T11:08:47;94277.56;;;18.01;32.12
56052;BME280;41919;42.648;23.384;2023-04-22T11:11:15;94239.94;;;17.84;31.90
56052;BME280;41919;42.648;23.384;2023-04-22T11:13:41;94225.19;;;17.93;31.60
56052;BME280;41919;42.648;23.384;2023-04-22T11:16:08;94211.97;;;17.93;31.31
56052;BME280;41919;42.648;23.384;2023-04-22T11:18:34;94270.59;;;17.85;34.51
56052;BME280;41919;42.648;23.384;2023-04-22T11:21:04;94276.19;;;17.51;34.60
56052;BME280;41919;42.648;23.384;2023-04-22T11:23:33;94286.94;;;17.39;36.70
56052;BME280;41919;42.648;23.384;2023-04-22T11:26:01;94217.22;;;17.08;35.48
56052;BME280;41919;42.648;23.384;2023-04-22T11:28:27;94278.25;;;17.12;36.80
56052;BME280;41919;42.648;23.384;2023-04-22T11:31:07;94300.16;;;17.12;36.69
56052;BME280;41919;42.648;23.384;2023-04-22T11:33:42;94301.97;;;17.39;36.15
56052;BME280;41919;42.648;23.384;2023-04-22T11:36:11;94294.03;;;17.39;37.64
56052;BME280;41919;42.648;23.384;2023-04-22T11:38:36;94239.09;;;17.03;37.09
56052;BME280;41919;42.648;23.384;2023-04-22T11:41:02;94253.81;;;16.94;38.00
56052;BME280;41919;42.648;23.384;2023-04-22T11:43:29;94305.84;;;16.99;39.05
56052;BME280;41919;42.648;23.384;2023-04-22T11:45:55;94287.00;;;16.63;41.13
56052;BME280;41919;42.648;23.384;2023-04-22T11:48:21;94244.16;;;16.56;41.65
56052;BME280;41919;42.648;23.384;2023-04-22T11:50:47;94303.50;;;17.67;42.25
56052;BME280;41919;42.648;23.384;2023-04-22T11:53:20;94313.16;;;17.51;38.45
56052;BME280;41919;42.648;23.384;2023-04-22T11:55:49;94310.19;;;17.42;37.49
56052;BME280;41919;42.648;23.384;2023-04-22T11:58:17;94320.69;;;17.32;38.04
56052;BME280;41919;42.648;23.384;2023-04-22T12:00:45;94331.72;;;17.29;38.67
56052;BME280;41919;42.648;23.384;2023-04-22T12:03:27;94247.81;;;16.77;38.19
56052;BME280;41919;42.648;23.384;2023-04-22T12:08:22;94265.34;;;16.39;39.14
56052;BME280;41919;42.648;23.384;2023-04-22T12:10:56;94326.72;;;16.78;39.54
56052;BME280;41919;42.648;23.384;2023-04-22T12:13:25;94263.22;;;16.36;40.19
56052;BME280;41919;42.648;23.384;2023-04-22T12:15:59;94262.22;;;16.20;41.17
56052;BME280;41919;42.648;23.384;2023-04-22T12:18:36;94322.25;;;16.79;41.49
56052;BME280;41919;42.648;23.384;2023-04-22T12:21:12;94336.41;;;16.95;41.14
56052;BME280;41919;42.648;23.384;2023-04-22T12:23:42;94324.34;;;16.77;41.35
56052;BME280;41919;42.648;23.384;2023-04-22T12:26:08;94311.69;;;16.79;41.05
56052;BME280;41919;42.648;23.384;2023-04-22T12:28:33;94320.78;;;16.88;41.86
56052;BME280;41919;42.648;23.384;2023-04-22T12:30:58;94253.84;;;16.72;40.05
56052;BME280;41919;42.648;23.384;2023-04-22T12:33:24;94313.22;;;17.24;39.37
56052;BME280;41919;42.648;23.384;2023-04-22T12:35:50;94315.28;;;17.22;39.12
56052;BME280;41919;42.648;23.384;2023-04-22T12:38:17;94259.84;;;16.90;39.52
56052;BME280;41919;42.648;23.384;2023-04-22T12:40:42;94311.69;;;17.01;40.95
56052;BME280;41919;42.648;23.384;2023-04-22T12:43:08;94323.38;;;17.10;41.71
56052;BME280;41919;42.648;23.384;2023-04-22T12:45:33;94246.75;;;16.78;41.79
56052;BME280;41919;42.648;23.384;2023-04-22T12:47:59;94322.06;;;16.85;41.03
56052;BME280;41919;42.648;23.384;2023-04-22T12:50:24;94263.50;;;16.39;42.67
56052;BME280;41919;42.648;23.384;2023-04-22T12:52:50;94271.78;;;16.48;42.72
56052;BME280;41919;42.648;23.384;2023-04-22T12:55:15;94325.31;;;16.93;43.24